Time;durP1;ratioP1;P1;durP2;ratioP2;P2;SDS_P1;SDS_P2;PMS_P1;PMS_P2;Temp;Humidity;BMP_temperature;BMP_pressure;BME280_temperature;BME280_humidity;BME280_pressure;Samples;Min_cycle;Max_cycle;Signal;HPM_P1;HPM_P2
2022/06/09 00:01:40;;;;;;;11.33;9.83;;;;;;;15.26;100.00;92285.13;5975858;24;20219;-76
2022/06/09 00:04:18;;;;;;;11.30;10.50;;;;;;;14.94;100.00;92251.50;5980997;24;20208;-76
2022/06/09 00:06:49;;;;;;;10.77;10.07;;;;;;;15.40;100.00;92286.50;5974326;24;20245;-76
2022/06/09 00:09:17;;;;;;;11.27;10.47;;;;;;;15.22;100.00;92281.59;5980648;24;20198;-76
2022/06/09 00:11:47;;;;;;;12.03;11.17;;;;;;;15.07;100.00;92279.44;5974742;24;20257;-76
2022/06/09 00:14:13;;;;;;;9.90;9.23;;;;;;;14.73;100.00;92261.13;5981279;24;20171;-75
2022/06/09 00:16:38;;;;;;;12.33;11.43;;;;;;;14.79;100.00;92257.25;5976562;24;20211;-76
2022/06/09 00:19:05;;;;;;;12.27;11.47;;;;;;;15.11;100.00;92281.16;5948628;24;20167;-76
2022/06/09 00:21:35;;;;;;;12.00;11.07;;;;;;;14.96;100.00;92275.63;5977129;24;20255;-76
2022/06/09 00:24:01;;;;;;;12.20;11.33;;;;;;;15.24;100.00;92274.16;5973158;24;20226;-75
2022/06/09 00:26:27;;;;;;;13.03;11.67;;;;;;;15.29;100.00;92266.09;5977133;24;20248;-75
2022/06/09 00:28:53;;;;;;;12.27;11.27;;;;;;;15.42;100.00;92278.31;5982472;24;20167;-75
2022/06/09 00:31:20;;;;;;;11.63;10.67;;;;;;;15.20;100.00;92260.88;5977280;24;20236;-75
2022/06/09 00:33:46;;;;;;;11.30;10.23;;;;;;;15.29;100.00;92247.69;5982746;24;20155;-76
2022/06/09 00:36:12;;;;;;;12.10;11.17;;;;;;;15.34;100.00;92276.44;5978232;24;21744;-76
2022/06/09 00:38:37;;;;;;;11.33;10.57;;;;;;;15.11;100.00;92222.53;5982743;24;20160;-75
2022/06/09 00:41:03;;;;;;;11.17;10.33;;;;;;;15.24;100.00;92251.25;5978951;24;20297;-76
2022/06/09 00:43:30;;;;;;;12.37;11.40;;;;;;;15.36;100.00;92261.13;5982289;24;20163;-76
2022/06/09 00:46:13;;;;;;;12.50;11.50;;;;;;;15.40;100.00;92265.47;5979745;24;20203;-76
2022/06/09 00:48:44;;;;;;;11.73;11.00;;;;;;;15.40;100.00;92272.59;5982659;24;20174;-76
2022/06/09 00:51:38;;;;;;;11.30;10.27;;;;;;;15.18;100.00;92243.84;5978439;24;20207;-76
2022/06/09 00:54:10;;;;;;;14.63;11.83;;;;;;;15.45;100.00;92267.16;5982229;24;20201;-76
2022/06/09 00:56:51;;;;;;;11.93;11.13;;;;;;;15.49;100.00;92249.63;5975438;24;20208;-75
2022/06/09 00:59:19;;;;;;;11.13;10.33;;;;;;;15.61;100.00;92261.03;5948962;24;20196;-76
2022/06/09 01:01:45;;;;;;;11.13;10.40;;;;;;;15.52;100.00;92249.00;5975802;24;20228;-75
2022/06/09 01:04:13;;;;;;;10.90;10.07;;;;;;;15.62;100.00;92251.28;5982948;24;20168;-75
2022/06/09 01:06:47;;;;;;;10.43;9.73;;;;;;;15.35;100.00;92247.19;5976350;24;20211;-76
2022/06/09 01:09:19;;;;;;;10.33;9.63;;;;;;;15.43;100.00;92243.00;5982407;24;20179;-76
2022/06/09 01:11:47;;;;;;;11.20;10.50;;;;;;;15.35;100.00;92241.16;5975785;24;20222;-76
2022/06/09 01:14:15;;;;;;;11.60;10.80;;;;;;;15.62;100.00;92261.81;5973083;24;20231;-76
2022/06/09 01:16:58;;;;;;;10.20;9.50;;;;;;;15.61;100.00;92260.28;5975732;24;20215;-76
2022/06/09 01:19:49;;;;;;;11.77;10.97;;;;;;;15.57;100.00;92264.63;5981817;24;20201;-76
2022/06/09 01:22:44;;;;;;;11.43;10.60;;;;;;;15.48;100.00;92266.53;5911887;24;20219;-76
2022/06/09 01:25:20;;;;;;;11.13;10.33;;;;;;;15.27;100.00;92245.38;5982091;24;20191;-76
2022/06/09 01:28:10;;;;;;;10.53;9.73;;;;;;;15.61;100.00;92260.28;5944714;24;20361;-76
2022/06/09 01:30:52;;;;;;;10.20;9.57;;;;;;;15.51;100.00;92261.41;5957192;24;20215;-76
2022/06/09 01:33:35;;;;;;;11.37;10.47;;;;;;;15.45;100.00;92235.59;5981226;24;20193;-75
2022/06/09 01:36:16;;;;;;;10.67;9.73;;;;;;;15.56;100.00;92236.78;5978859;24;20207;-76
2022/06/09 01:38:45;;;;;;;12.30;11.43;;;;;;;15.68;100.00;92242.91;5982410;24;20256;-76
2022/06/09 01:41:10;;;;;;;11.70;10.90;;;;;;;15.45;100.00;92210.06;5977776;24;20225;-76
2022/06/09 01:43:36;;;;;;;12.20;11.37;;;;;;;15.55;100.00;92220.19;5981768;24;20168;-74
2022/06/09 01:46:13;;;;;;;10.63;9.83;;;;;;;15.56;100.00;92242.03;5978794;24;20269;-75
2022/06/09 01:48:39;;;;;;;10.67;9.97;;;;;;;15.66;100.00;92231.91;5982449;24;20242;-75
2022/06/09 01:51:11;;;;;;;12.27;11.37;;;;;;;15.56;100.00;92202.56;5978449;24;20210;-75
2022/06/09 01:53:51;;;;;;;12.10;11.30;;;;;;;15.68;100.00;92239.50;5981836;24;20196;-76
2022/06/09 01:56:27;;;;;;;12.70;11.70;;;;;;;15.53;100.00;92226.88;5975915;24;20207;-75
2022/06/09 01:58:58;;;;;;;11.10;10.40;;;;;;;15.37;100.00;92249.50;5981957;24;20170;-75
2022/06/09 02:01:33;;;;;;;14.77;11.43;;;;;;;15.19;100.00;92254.06;5971812;24;20216;-76
2022/06/09 02:04:02;;;;;;;11.40;10.60;;;;;;;15.11;100.00;92247.00;5973518;24;20200;-79
2022/06/09 02:06:28;;;;;;;11.47;10.60;;;;;;;15.25;100.00;92225.75;5971510;24;20214;-69
2022/06/09 02:08:55;;;;;;;12.60;11.43;;;;;;;15.22;100.00;92239.53;5981162;24;20160;-70
2022/06/09 02:11:21;;;;;;;13.43;12.17;;;;;;;15.36;100.00;92242.72;5976338;24;20211;-69
2022/06/09 02:13:50;;;;;;;11.60;10.80;;;;;;;15.43;100.00;92243.00;5980872;24;20207;-70
2022/06/09 02:16:18;;;;;;;12.23;11.50;;;;;;;15.28;100.00;92246.16;5972220;24;20215;-70
2022/06/09 02:18:48;;;;;;;12.00;11.10;;;;;;;15.28;100.00;92240.88;5971786;24;20171;-71
2022/06/09 02:21:26;;;;;;;12.40;11.30;;;;;;;15.37;100.00;92234.50;5972739;24;20258;-74
2022/06/09 02:23:53;;;;;;;12.47;11.57;;;;;;;15.40;100.00;92243.66;5982779;24;20159;-75
2022/06/09 02:26:20;;;;;;;12.30;11.27;;;;;;;15.32;100.00;92234.69;5976126;24;20215;-77
2022/06/09 02:28:45;;;;;;;12.17;11.17;;;;;;;15.04;100.00;92232.75;5949209;24;20178;-76
2022/06/09 02:31:11;;;;;;;11.37;10.47;;;;;;;15.00;100.00;92234.47;5978633;24;20211;-76
2022/06/09 02:33:37;;;;;;;11.67;10.90;;;;;;;15.29;100.00;92263.47;5983097;24;20164;-76
2022/06/09 02:36:03;;;;;;;12.17;11.23;;;;;;;15.10;100.00;92247.28;5948875;24;20987;-76
2022/06/09 02:38:28;;;;;;;11.57;10.80;;;;;;;15.12;100.00;92269.56;5982681;24;20170;-77
2022/06/09 02:40:54;;;;;;;12.43;11.53;;;;;;;15.31;100.00;92264.72;5979423;24;20211;-77
2022/06/09 02:43:20;;;;;;;11.67;10.87;;;;;;;15.26;100.00;92264.88;5973966;24;20259;-76
2022/06/09 02:45:46;;;;;;;12.20;11.20;;;;;;;15.25;100.00;92275.72;5944394;24;20212;-76
2022/06/09 02:48:12;;;;;;;12.00;10.90;;;;;;;15.25;100.00;92273.09;5955170;24;20183;-76
2022/06/09 02:50:39;;;;;;;12.83;11.60;;;;;;;15.31;100.00;92256.81;5953177;24;20264;-77
2022/06/09 02:53:06;;;;;;;13.53;12.53;;;;;;;15.34;100.00;92263.28;5954583;24;20194;-76
2022/06/09 02:55:32;;;;;;;12.97;11.97;;;;;;;15.53;100.00;92258.47;5956903;24;20193;-76
2022/06/09 02:57:57;;;;;;;13.23;11.97;;;;;;;15.38;100.00;92230.81;5982361;24;20179;-76
2022/06/09 03:00:22;;;;;;;12.83;11.93;;;;;;;15.20;100.00;92228.53;5981627;24;20168;-76
2022/06/09 03:02:58;;;;;;;14.33;13.13;;;;;;;15.37;100.00;92244.25;5982278;24;20236;-76
2022/06/09 03:05:25;;;;;;;15.17;13.50;;;;;;;15.56;100.00;92260.44;5981015;24;20238;-75
2022/06/09 03:07:51;;;;;;;14.60;13.33;;;;;;;15.53;100.00;92258.47;5982114;24;20168;-77
2022/06/09 03:10:16;;;;;;;14.73;13.37;;;;;;;15.42;100.00;92239.63;5948870;24;20245;-76
2022/06/09 03:12:42;;;;;;;14.03;12.87;;;;;;;15.39;100.00;92268.41;5982367;24;20167;-77
2022/06/09 03:15:10;;;;;;;16.63;15.17;;;;;;;15.60;100.00;92269.25;5982729;24;20190;-77
2022/06/09 03:17:36;;;;;;;17.60;15.00;;;;;;;15.65;100.00;92271.69;5972644;24;20267;-77
2022/06/09 03:20:04;;;;;;;16.90;14.70;;;;;;;15.66;100.00;92262.72;5982572;24;20193;-77
2022/06/09 03:22:30;;;;;;;17.53;15.83;;;;;;;15.82;100.00;92269.75;5972572;24;20195;-76
2022/06/09 03:24:56;;;;;;;17.77;15.97;;;;;;;15.88;100.00;92265.06;5973069;24;20219;-77
2022/06/09 03:27:22;;;;;;;18.10;16.30;;;;;;;15.87;100.00;92253.78;5973685;24;20211;-77
2022/06/09 03:29:47;;;;;;;17.63;15.83;;;;;;;15.89;100.00;92256.09;5982272;24;20160;-77
2022/06/09 03:32:13;;;;;;;16.83;15.13;;;;;;;16.13;100.00;92264.16;5973941;24;20218;-77
2022/06/09 03:34:38;;;;;;;16.40;14.73;;;;;;;15.88;100.00;92222.94;5982454;24;20160;-77
2022/06/09 03:37:03;;;;;;;18.40;15.80;;;;;;;16.02;100.00;92234.78;5972589;24;20211;-77
2022/06/09 03:39:29;;;;;;;16.93;15.23;;;;;;;16.16;100.00;92247.69;5972964;24;20174;-77
2022/06/09 03:41:54;;;;;;;18.03;15.70;;;;;;;16.33;100.00;92266.00;5971081;24;20203;-77
2022/06/09 03:44:20;;;;;;;18.03;15.53;;;;;;;16.10;100.00;92227.91;5982416;24;20168;-77
2022/06/09 03:46:45;;;;;;;16.47;14.77;;;;;;;16.21;100.00;92236.19;5974274;24;20256;-76
2022/06/09 03:49:11;;;;;;;16.33;14.63;;;;;;;16.32;100.00;92269.75;5982259;24;20155;-77
2022/06/09 03:51:37;;;;;;;15.40;13.27;;;;;;;16.40;100.00;92270.78;5976290;24;20215;-76
2022/06/09 03:54:03;;;;;;;16.67;14.60;;;;;;;16.50;100.00;92260.66;5982214;24;20167;-77
2022/06/09 03:56:28;;;;;;;16.57;14.37;;;;;;;16.56;100.00;92261.22;5976171;24;20203;-77
2022/06/09 03:58:54;;;;;;;16.87;14.67;;;;;;;16.83;98.37;92264.09;5982242;24;20164;-75
2022/06/09 04:01:19;;;;;;;16.80;15.00;;;;;;;16.81;98.89;92260.25;5970949;24;20234;-76
2022/06/09 04:03:46;;;;;;;18.10;15.57;;;;;;;16.77;97.66;92257.47;5980951;24;20197;-75
2022/06/09 04:06:17;;;;;;;17.97;13.90;;;;;;;17.04;96.60;92254.25;5977264;24;20211;-75
2022/06/09 04:08:43;;;;;;;16.07;14.37;;;;;;;17.17;94.55;92265.59;5981111;24;20178;-75
2022/06/09 04:11:10;;;;;;;15.87;14.37;;;;;;;17.45;93.81;92261.28;5976697;24;20211;-73
2022/06/09 04:13:37;;;;;;;15.10;13.73;;;;;;;17.88;91.86;92263.41;5980392;24;20163;-74
2022/06/09 04:16:06;;;;;;;15.63;14.20;;;;;;;18.09;90.18;92262.16;5971678;24;20758;-75
2022/06/09 04:18:32;;;;;;;16.67;15.07;;;;;;;18.29;87.74;92271.81;5946953;24;20164;-75
2022/06/09 04:20:57;;;;;;;16.77;14.93;;;;;;;18.81;84.94;92266.53;5946977;24;20347;-75
2022/06/09 04:23:25;;;;;;;15.37;13.77;;;;;;;19.07;82.60;92280.09;5981437;24;20161;-75
2022/06/09 04:25:50;;;;;;;17.07;14.80;;;;;;;18.65;85.12;92279.69;5977091;24;20203;-74
2022/06/09 04:28:16;;;;;;;15.00;13.60;;;;;;;18.20;87.53;92262.47;5981313;24;20220;-74
2022/06/09 04:30:41;;;;;;;16.40;14.70;;;;;;;17.42;89.97;92270.59;5979181;24;20258;-75
2022/06/09 04:33:06;;;;;;;16.50;14.90;;;;;;;17.35;90.91;92273.00;5981397;24;20200;-74
2022/06/09 04:35:32;;;;;;;16.57;14.87;;;;;;;17.52;90.38;92272.09;5979220;24;20211;-75
2022/06/09 04:38:00;;;;;;;15.80;14.40;;;;;;;17.76;90.18;92269.44;5981289;24;20192;-75
2022/06/09 04:40:30;;;;;;;15.47;13.97;;;;;;;17.90;89.24;92263.84;5947515;24;20167;-74
2022/06/09 04:42:56;;;;;;;17.07;14.67;;;;;;;18.38;85.87;92255.88;5981746;24;20156;-77
2022/06/09 04:45:22;;;;;;;16.60;15.10;;;;;;;18.91;83.09;92266.81;5971996;24;20216;-75
2022/06/09 04:47:47;;;;;;;16.90;15.17;;;;;;;19.14;82.34;92259.88;5981443;24;20301;-74
2022/06/09 04:50:13;;;;;;;15.77;14.07;;;;;;;19.30;80.29;92273.16;5972042;24;20182;-75
2022/06/09 04:52:39;;;;;;;15.63;14.13;;;;;;;19.02;81.29;92254.66;5948954;24;20167;-75
2022/06/09 04:55:06;;;;;;;16.30;14.80;;;;;;;19.17;80.39;92267.13;5981624;24;20171;-75
2022/06/09 04:57:31;;;;;;;16.50;14.80;;;;;;;18.33;82.24;92256.06;5971953;24;20215;-75
2022/06/09 04:59:57;;;;;;;16.90;15.30;;;;;;;18.87;81.78;92275.75;5948612;24;20173;-75
2022/06/09 05:02:22;;;;;;;17.53;15.53;;;;;;;18.86;80.94;92263.66;5973456;24;20294;-74
2022/06/09 05:04:48;;;;;;;17.00;15.17;;;;;;;18.93;81.93;92272.53;5982007;24;20213;-75
2022/06/09 05:07:13;;;;;;;16.70;15.00;;;;;;;18.96;81.32;92273.75;5972916;24;20215;-75
2022/06/09 05:09:39;;;;;;;17.47;15.67;;;;;;;18.44;84.12;92267.75;5982586;24;20170;-74
2022/06/09 05:12:04;;;;;;;19.90;16.67;;;;;;;17.96;87.32;92254.59;5972832;24;20264;-75
2022/06/09 05:14:30;;;;;;;18.07;16.27;;;;;;;17.98;86.78;92255.78;5983035;24;20207;-74
2022/06/09 05:16:56;;;;;;;18.40;16.57;;;;;;;18.10;85.87;92262.94;5976434;24;20221;-75
2022/06/09 05:19:21;;;;;;;18.80;17.10;;;;;;;17.99;86.80;92246.78;5983867;24;20191;-74
2022/06/09 05:21:47;;;;;;;19.20;17.17;;;;;;;17.54;90.02;92264.63;5974319;24;20252;-75
2022/06/09 05:24:13;;;;;;;18.23;16.33;;;;;;;17.93;88.19;92266.56;5974395;24;20167;-75
2022/06/09 05:26:38;;;;;;;18.37;16.47;;;;;;;18.24;86.74;92261.47;5949411;24;20212;-74
2022/06/09 05:29:04;;;;;;;19.13;17.13;;;;;;;18.76;85.25;92272.84;5983830;24;20159;-74
2022/06/09 05:31:29;;;;;;;19.10;17.03;;;;;;;19.08;84.38;92269.16;5977808;24;20211;-74
2022/06/09 05:33:55;;;;;;;20.37;17.47;;;;;;;19.25;83.81;92265.47;5983185;24;20168;-74
2022/06/09 05:36:20;;;;;;;17.83;16.10;;;;;;;19.47;83.26;92266.78;5973737;24;20227;-75
2022/06/09 05:46:59;;;;;;;16.93;15.30;;;;;;;19.52;79.27;92275.25;5976104;24;20361;-75
2022/06/09 05:49:25;;;;;;;18.03;16.23;;;;;;;19.92;78.86;92281.13;5983471;24;20163;-74
2022/06/09 05:51:52;;;;;;;17.30;15.57;;;;;;;19.79;79.70;92279.69;5976503;24;20230;-74
2022/06/09 05:54:20;;;;;;;16.60;15.10;;;;;;;20.16;78.46;92273.03;5983112;24;20170;-75
2022/06/09 05:56:46;;;;;;;16.63;14.93;;;;;;;20.15;77.28;92255.59;5976591;24;20885;-76
2022/06/09 05:59:12;;;;;;;16.33;14.80;;;;;;;20.56;75.94;92268.22;5983384;24;20182;-75
2022/06/09 06:01:37;;;;;;;15.57;14.17;;;;;;;19.76;78.59;92279.59;5973179;24;20237;-75
2022/06/09 06:04:05;;;;;;;16.97;15.43;;;;;;;20.84;72.45;92267.25;5973968;24;20198;-79
2022/06/09 06:06:33;;;;;;;17.07;15.43;;;;;;;21.53;69.55;92248.44;5972215;24;20217;-76
2022/06/09 06:09:05;;;;;;;14.37;13.13;;;;;;;21.53;68.08;92275.03;5982334;24;20177;-76
2022/06/09 06:11:30;;;;;;;15.50;13.93;;;;;;;20.82;70.81;92256.22;5948375;24;20217;-74
2022/06/09 06:13:56;;;;;;;15.90;13.17;;;;;;;20.58;70.00;92262.56;5982043;24;21177;-75
2022/06/09 06:16:23;;;;;;;14.07;12.67;;;;;;;20.16;74.37;92251.81;5977167;24;20245;-75
2022/06/09 06:18:49;;;;;;;14.57;13.40;;;;;;;20.36;73.25;92261.34;5972508;24;20176;-75
2022/06/09 06:21:16;;;;;;;14.47;13.23;;;;;;;22.69;66.21;92250.25;5947742;24;20230;-75
2022/06/09 06:23:41;;;;;;;13.65;12.30;;;;;;;27.14;52.92;92259.69;5981691;24;20182;-76
2022/06/09 06:26:07;;;;;;;12.75;11.65;;;;;;;30.84;39.99;92262.75;5977991;24;20217;-75
2022/06/09 06:28:33;;;;;;;13.13;11.80;;;;;;;32.21;38.70;92293.16;5982934;24;20170;-76
2022/06/09 06:30:58;;;;;;;14.10;12.57;;;;;;;32.09;37.58;92285.72;5979127;24;20210;-76
2022/06/09 06:33:24;;;;;;;14.50;13.30;;;;;;;32.11;35.83;92286.03;5983087;24;20752;-76
2022/06/09 06:35:50;;;;;;;12.85;11.52;;;;;;;30.97;37.95;92274.47;5980088;24;20215;-76
2022/06/09 06:38:15;;;;;;;13.43;12.32;;;;;;;31.90;37.17;92270.31;5982845;24;20159;-76
2022/06/09 06:40:41;;;;;;;11.80;10.60;;;;;;;32.56;35.64;92286.94;5980606;24;20211;-76
2022/06/09 06:43:06;;;;;;;13.05;11.85;;;;;;;32.63;34.88;92286.03;5982808;24;20191;-76
2022/06/09 06:45:32;;;;;;;11.73;10.82;;;;;;;32.42;35.66;92262.22;5981474;24;20212;-76
2022/06/09 06:47:57;;;;;;;12.38;11.23;;;;;;;33.79;33.02;92270.16;5982090;24;20206;-76
2022/06/09 06:50:24;;;;;;;12.18;10.90;;;;;;;27.00;47.58;92253.59;5981561;24;20556;-76
2022/06/09 06:52:49;;;;;;;12.48;11.52;;;;;;;25.67;49.56;92220.44;5983086;24;20176;-77
2022/06/09 06:55:16;;;;;;;11.68;10.52;;;;;;;24.07;56.10;92258.56;5982220;24;20171;-76
2022/06/09 06:57:42;;;;;;;12.98;11.88;;;;;;;23.17;60.50;92228.78;5983233;24;20182;-73
2022/06/09 07:00:10;;;;;;;14.05;12.73;;;;;;;23.03;58.96;92233.94;5982659;24;20173;-74
2022/06/09 07:02:36;;;;;;;14.13;13.02;;;;;;;23.03;59.58;92249.16;5972997;24;20247;-74
2022/06/09 07:05:01;;;;;;;14.15;13.05;;;;;;;22.26;63.36;92248.88;5982284;24;20209;-74
2022/06/09 07:07:27;;;;;;;13.98;12.77;;;;;;;22.41;64.44;92239.22;5973778;24;20233;-74
2022/06/09 07:09:52;;;;;;;14.88;13.57;;;;;;;22.88;64.38;92242.13;5948771;24;20169;-73
2022/06/09 07:12:19;;;;;;;14.50;13.23;;;;;;;22.37;63.05;92244.47;5974548;24;20208;-74
2022/06/09 07:14:44;;;;;;;15.80;14.45;;;;;;;22.12;63.04;92230.06;5973258;24;20203;-76
2022/06/09 07:17:10;;;;;;;15.30;14.00;;;;;;;21.94;62.13;92231.69;5975253;24;20209;-76
2022/06/09 07:19:36;;;;;;;14.80;13.40;;;;;;;22.01;63.96;92242.44;5973714;24;20244;-76
2022/06/09 07:22:02;;;;;;;16.15;14.60;;;;;;;22.23;65.73;92232.91;5975286;24;20255;-76
2022/06/09 07:24:28;;;;;;;18.75;15.27;;;;;;;22.39;64.06;92242.25;5973651;24;20166;-76
2022/06/09 07:26:54;;;;;;;17.25;15.65;;;;;;;22.09;65.00;92239.53;5972534;24;20276;-76
2022/06/09 07:29:19;;;;;;;17.23;15.50;;;;;;;22.52;65.59;92237.50;5982499;24;20173;-76
2022/06/09 07:31:45;;;;;;;17.10;15.52;;;;;;;22.56;63.76;92243.63;5976106;24;20212;-76
2022/06/09 07:34:11;;;;;;;16.95;15.35;;;;;;;22.61;62.93;92238.75;5974119;24;20165;-76
2022/06/09 07:36:38;;;;;;;16.05;14.65;;;;;;;22.41;64.98;92232.00;5976714;24;20268;-76
2022/06/09 07:39:04;;;;;;;15.30;13.80;;;;;;;23.30;62.75;92240.72;5982915;24;20161;-76
2022/06/09 07:41:29;;;;;;;15.75;14.00;;;;;;;22.70;64.72;92235.81;5977119;24;20211;-76
2022/06/09 07:43:56;;;;;;;16.10;14.80;;;;;;;22.97;61.78;92230.09;5982469;24;20157;-76
2022/06/09 07:46:21;;;;;;;15.02;13.80;;;;;;;23.06;61.59;92217.25;5978359;24;20217;-76
2022/06/09 07:48:47;;;;;;;16.42;14.88;;;;;;;22.31;63.89;92229.97;5973255;24;20163;-73
2022/06/09 07:51:13;;;;;;;15.18;13.88;;;;;;;22.56;61.41;92225.78;5978063;24;20224;-73
2022/06/09 07:53:39;;;;;;;16.42;14.82;;;;;;;22.72;62.24;92220.25;5982722;24;20176;-73
2022/06/09 07:56:05;;;;;;;18.42;14.82;;;;;;;23.14;64.64;92226.84;5947236;24;20217;-73
2022/06/09 07:58:31;;;;;;;16.13;14.68;;;;;;;22.43;63.70;92213.78;5982626;24;20198;-73
2022/06/09 08:00:57;;;;;;;15.75;14.35;;;;;;;22.19;64.26;92224.84;5978756;24;20211;-73
2022/06/09 08:03:26;;;;;;;16.10;14.50;;;;;;;21.89;64.71;92218.72;5982479;24;20173;-73
2022/06/09 08:05:52;;;;;;;16.48;14.40;;;;;;;21.69;65.38;92214.56;5979324;24;20216;-73
2022/06/09 08:08:19;;;;;;;16.85;15.38;;;;;;;21.67;67.87;92195.56;5948961;24;20247;-73
2022/06/09 08:10:45;;;;;;;17.85;16.02;;;;;;;22.01;65.00;92202.56;5979982;24;20783;-73
2022/06/09 08:13:11;;;;;;;18.00;14.13;;;;;;;22.15;67.02;92205.41;5982869;24;20167;-74
2022/06/09 08:15:38;;;;;;;15.57;13.98;;;;;;;22.05;66.36;92203.38;5972748;24;20249;-73
2022/06/09 08:18:03;;;;;;;14.98;13.73;;;;;;;22.86;64.13;92215.88;5982068;24;20188;-73
2022/06/09 08:20:32;;;;;;;14.77;13.38;;;;;;;22.18;64.74;92199.38;5980635;24;20221;-73
2022/06/09 08:23:02;;;;;;;15.20;13.80;;;;;;;22.02;65.26;92183.59;5982220;24;20166;-73
2022/06/09 08:25:28;;;;;;;16.40;14.80;;;;;;;22.16;65.22;92198.97;5948102;24;20197;-73
2022/06/09 08:27:54;;;;;;;16.23;14.82;;;;;;;21.62;65.74;92186.00;5973687;24;20161;-73
2022/06/09 08:30:19;;;;;;;16.35;14.85;;;;;;;21.36;68.96;92196.56;5981137;24;20220;-73
2022/06/09 08:32:45;;;;;;;15.90;14.60;;;;;;;21.48;67.65;92200.97;5982290;24;20239;-73
2022/06/09 08:35:16;;;;;;;14.23;13.02;;;;;;;22.38;64.84;92197.38;5982695;24;20165;-73
2022/06/09 08:37:42;;;;;;;14.95;13.70;;;;;;;22.38;65.44;92198.16;5974388;24;20185;-73
2022/06/09 08:40:13;;;;;;;14.77;13.50;;;;;;;22.82;63.77;92196.41;5983845;24;20173;-73
2022/06/09 08:42:57;;;;;;;15.90;14.50;;;;;;;22.40;65.72;92195.88;5974128;24;20250;-73
2022/06/09 08:45:35;;;;;;;14.60;13.40;;;;;;;22.98;59.41;92151.72;5983093;24;20189;-74
2022/06/09 08:48:03;;;;;;;15.02;13.63;;;;;;;23.14;60.45;92197.56;5983814;24;20165;-74
2022/06/09 08:50:33;;;;;;;14.68;13.18;;;;;;;23.18;58.43;92187.69;5974425;24;20226;-74
2022/06/09 08:53:04;;;;;;;13.43;12.13;;;;;;;22.88;64.08;92194.97;5983847;24;20173;-73
2022/06/09 08:55:37;;;;;;;14.30;12.80;;;;;;;23.77;59.53;92197.38;5982266;24;20187;-73
2022/06/09 08:58:18;;;;;;;14.27;13.07;;;;;;;23.97;58.42;92200.59;5983469;24;20183;-73
2022/06/09 09:00:54;;;;;;;14.63;13.32;;;;;;;23.81;57.83;92182.19;5981514;24;20226;-73
2022/06/09 09:03:31;;;;;;;15.48;13.95;;;;;;;23.62;59.04;92169.84;5983558;24;20345;-73
2022/06/09 09:06:17;;;;;;;14.80;13.23;;;;;;;23.11;60.28;92187.63;5973740;24;20220;-73
2022/06/09 09:08:42;;;;;;;14.25;12.95;;;;;;;23.75;59.79;92181.75;5983576;24;20177;-72
2022/06/09 09:11:39;;;;;;;15.07;13.77;;;;;;;23.95;57.17;92170.84;5979530;24;20204;-73
2022/06/09 09:14:19;;;;;;;14.50;13.07;;;;;;;23.81;58.03;92166.19;5974481;24;20167;-73
2022/06/09 09:17:00;;;;;;;14.50;13.20;;;;;;;23.87;57.93;92177.25;5974474;24;20213;-73
2022/06/09 09:19:54;;;;;;;15.32;13.77;;;;;;;23.59;56.86;92154.59;5983698;24;20187;-73
2022/06/09 09:22:25;;;;;;;14.82;13.68;;;;;;;23.68;58.05;92168.38;5973434;24;20214;-73
2022/06/09 09:24:58;;;;;;;14.40;13.23;;;;;;;23.48;61.15;92140.41;5982912;24;20169;-75
2022/06/09 09:27:27;;;;;;;15.10;13.77;;;;;;;23.74;60.10;92164.22;5974717;24;20272;-75
2022/06/09 09:29:55;;;;;;;15.43;14.02;;;;;;;23.77;58.76;92163.47;5949818;24;20178;-75
2022/06/09 09:32:24;;;;;;;15.02;13.63;;;;;;;23.29;64.10;92153.94;5974984;24;20247;-75
2022/06/09 09:34:51;;;;;;;14.65;13.45;;;;;;;22.93;61.32;92157.38;5983484;24;20165;-76
2022/06/09 09:37:32;;;;;;;14.20;12.85;;;;;;;22.55;62.63;92144.41;5975286;24;20209;-76
2022/06/09 09:40:29;;;;;;;17.05;14.88;;;;;;;21.72;65.27;92113.66;5983235;24;20166;-76
2022/06/09 09:42:58;;;;;;;14.43;13.23;;;;;;;22.46;63.85;92141.22;5973781;24;20191;-76
2022/06/09 09:45:40;;;;;;;14.45;13.25;;;;;;;22.95;63.59;92141.81;5982557;24;20194;-76
2022/06/09 09:48:28;;;;;;;15.05;13.68;;;;;;;22.77;61.44;92100.16;5983063;24;20169;-75
2022/06/09 09:51:00;;;;;;;13.95;12.77;;;;;;;22.64;61.41;92131.59;5979998;24;20248;-75
2022/06/09 09:53:33;;;;;;;13.77;12.38;;;;;;;22.59;60.21;92131.91;5982963;24;20167;-75
2022/06/09 09:56:01;;;;;;;13.90;12.80;;;;;;;22.47;63.42;92132.13;5979665;24;20739;-75
2022/06/09 09:58:27;;;;;;;12.77;11.68;;;;;;;22.92;62.87;92137.22;5950164;24;20172;-74
2022/06/09 10:01:14;;;;;;;12.70;11.55;;;;;;;23.10;59.72;92116.84;5980065;24;20245;-76
2022/06/09 10:09:46;;;;;;;13.10;12.00;;;;;;;22.92;57.76;92123.91;5983492;24;20184;-76
2022/06/09 10:12:23;;;;;;;12.35;11.25;;;;;;;22.74;60.36;92119.53;5975521;24;20208;-75
2022/06/09 10:15:01;;;;;;;13.00;11.98;;;;;;;22.43;61.13;92119.91;5983382;24;20167;-75
2022/06/09 10:17:36;;;;;;;13.57;12.27;;;;;;;22.32;61.88;92114.44;5974262;24;20208;-75
2022/06/09 10:20:16;;;;;;;14.82;13.40;;;;;;;22.08;61.70;92110.38;5983176;24;20167;-76
2022/06/09 10:22:53;;;;;;;13.13;12.13;;;;;;;22.34;60.41;92122.84;5973692;24;20207;-76
2022/06/09 10:25:23;;;;;;;13.23;12.18;;;;;;;22.39;60.29;92106.56;5982295;24;20187;-77
2022/06/09 10:27:56;;;;;;;13.55;12.20;;;;;;;21.93;63.08;92097.25;5983496;24;20182;-77
2022/06/09 10:30:37;;;;;;;13.80;12.73;;;;;;;22.09;61.83;92105.81;5982135;24;20170;-77
2022/06/09 10:33:24;;;;;;;13.45;12.15;;;;;;;22.14;65.38;92102.84;5949697;24;20208;-77
2022/06/09 10:35:55;;;;;;;14.80;13.18;;;;;;;22.44;63.08;92079.66;5980079;24;20212;-77
2022/06/09 10:38:42;;;;;;;13.82;11.60;;;;;;;22.95;60.62;92088.56;5949682;24;20207;-77
2022/06/09 10:41:16;;;;;;;12.50;11.32;;;;;;;22.73;61.21;92094.81;5973155;24;20214;-77
2022/06/09 10:43:57;;;;;;;15.57;13.80;;;;;;;22.62;61.87;92091.25;5981012;24;20190;-75
2022/06/09 10:46:39;;;;;;;12.48;11.48;;;;;;;23.02;61.10;92096.59;5977720;24;20269;-77
2022/06/09 10:55:29;;;;;;;12.60;11.55;;;;;;;24.01;56.19;92089.38;5965824;24;20183;-76
2022/06/09 10:58:06;;;;;;;12.20;11.30;;;;;;;24.00;57.65;92085.19;5981669;24;20162;-77
2022/06/09 11:00:45;;;;;;;11.75;10.90;;;;;;;24.20;60.16;92084.53;5979818;24;23022;-77
2022/06/09 11:03:30;;;;;;;11.65;10.75;;;;;;;23.74;57.81;92089.56;5948507;24;20201;-77
2022/06/09 11:06:31;;;;;;;12.18;11.23;;;;;;;23.69;59.57;92065.94;5947212;24;20218;-80
2022/06/09 11:09:08;;;;;;;11.55;10.75;;;;;;;24.07;56.22;92067.31;5963272;24;20171;-81
2022/06/09 11:11:33;;;;;;;11.43;10.48;;;;;;;24.53;53.53;92080.84;5976204;24;20230;-80
2022/06/09 11:14:35;;;;;;;11.20;10.40;;;;;;;24.24;54.89;92081.84;5981726;24;20165;-81
2022/06/09 11:17:19;;;;;;;11.20;10.20;;;;;;;23.03;57.67;92078.72;5971907;24;20209;-79
2022/06/09 11:20:03;;;;;;;11.77;10.93;;;;;;;22.80;58.69;92070.16;5981415;24;20212;-80
2022/06/09 11:22:44;;;;;;;11.32;10.52;;;;;;;23.54;58.71;92072.31;5947457;24;20212;-81
2022/06/09 11:25:28;;;;;;;10.70;9.95;;;;;;;23.25;58.13;92081.22;5981635;24;20210;-81
2022/06/09 11:28:14;;;;;;;11.35;10.55;;;;;;;23.42;57.59;92067.28;5972254;24;20266;-81
2022/06/09 11:31:04;;;;;;;11.52;10.60;;;;;;;23.07;59.74;92064.31;5979372;24;20240;-77
2022/06/09 11:34:05;;;;;;;10.82;10.10;;;;;;;22.66;63.28;92062.03;5948352;24;20173;-77
2022/06/09 11:36:54;;;;;;;10.60;9.90;;;;;;;22.74;63.53;92053.72;5957626;24;20214;-77
2022/06/09 11:39:38;;;;;;;10.38;9.77;;;;;;;22.94;62.02;92051.66;5981743;24;20170;-77
2022/06/09 11:42:22;;;;;;;11.52;10.63;;;;;;;23.38;59.97;92034.50;5947411;24;20275;-76
2022/06/09 11:44:51;;;;;;;11.38;10.57;;;;;;;23.04;56.20;92041.06;5981428;24;20179;-77
2022/06/09 11:47:19;;;;;;;12.07;11.02;;;;;;;23.27;57.74;92025.69;5972255;24;20221;-77
2022/06/09 11:49:57;;;;;;;11.90;10.90;;;;;;;23.77;54.60;92023.31;5981364;24;20168;-77